sensor_id;sensor_type;location;lat;lon;timestamp;temperature;humidity
17208;DHT22;8720;48.488;9.202;2023-03-22T00:01:14;14.20;41.80
17208;DHT22;8720;48.488;9.202;2023-03-22T00:03:44;14.30;42.00
17208;DHT22;8720;48.488;9.202;2023-03-22T00:06:13;14.30;41.90
17208;DHT22;8720;48.488;9.202;2023-03-22T00:08:42;14.30;41.90
17208;DHT22;8720;48.488;9.202;2023-03-22T00:11:10;14.30;41.90
17208;DHT22;8720;48.488;9.202;2023-03-22T00:13:38;14.30;41.80
17208;DHT22;8720;48.488;9.202;2023-03-22T00:16:08;14.30;41.80
17208;DHT22;8720;48.488;9.202;2023-03-22T00:18:36;14.30;41.80
17208;DHT22;8720;48.488;9.202;2023-03-22T00:21:04;14.30;41.80
17208;DHT22;8720;48.488;9.202;2023-03-22T00:23:33;14.30;41.80
17208;DHT22;8720;48.488;9.202;2023-03-22T00:26:01;14.30;41.80
17208;DHT22;8720;48.488;9.202;2023-03-22T00:28:28;14.30;41.90
17208;DHT22;8720;48.488;9.202;2023-03-22T00:30:57;14.30;41.90
17208;DHT22;8720;48.488;9.202;2023-03-22T00:33:26;14.30;41.90
17208;DHT22;8720;48.488;9.202;2023-03-22T00:35:57;14.30;41.80
17208;DHT22;8720;48.488;9.202;2023-03-22T00:38:26;14.20;41.80
17208;DHT22;8720;48.488;9.202;2023-03-22T00:41:11;14.20;41.80
17208;DHT22;8720;48.488;9.202;2023-03-22T00:43:41;14.20;41.90
17208;DHT22;8720;48.488;9.202;2023-03-22T00:46:09;14.20;41.90
17208;DHT22;8720;48.488;9.202;2023-03-22T00:48:37;14.10;41.90
17208;DHT22;8720;48.488;9.202;2023-03-22T00:51:06;14.10;41.90
17208;DHT22;8720;48.488;9.202;2023-03-22T00:53:36;14.10;41.90
17208;DHT22;8720;48.488;9.202;2023-03-22T00:56:05;14.00;41.90
17208;DHT22;8720;48.488;9.202;2023-03-22T00:58:44;14.00;42.00
17208;DHT22;8720;48.488;9.202;2023-03-22T01:01:12;14.00;42.10
17208;DHT22;8720;48.488;9.202;2023-03-22T01:03:39;13.90;42.60
17208;DHT22;8720;48.488;9.202;2023-03-22T01:06:07;13.80;42.10
17208;DHT22;8720;48.488;9.202;2023-03-22T01:08:35;13.80;42.20
17208;DHT22;8720;48.488;9.202;2023-03-22T01:11:04;13.70;42.20
17208;DHT22;8720;48.488;9.202;2023-03-22T01:13:33;13.60;42.30
17208;DHT22;8720;48.488;9.202;2023-03-22T01:16:04;13.60;42.50
17208;DHT22;8720;48.488;9.202;2023-03-22T01:18:33;13.50;42.60
17208;DHT22;8720;48.488;9.202;2023-03-22T01:21:01;13.40;42.70
17208;DHT22;8720;48.488;9.202;2023-03-22T01:23:29;13.40;42.60
17208;DHT22;8720;48.488;9.202;2023-03-22T01:25:57;13.30;43.20
17208;DHT22;8720;48.488;9.202;2023-03-22T01:28:25;13.20;42.70
17208;DHT22;8720;48.488;9.202;2023-03-22T01:30:52;13.20;42.70
17208;DHT22;8720;48.488;9.202;2023-03-22T01:33:21;13.10;42.70
17208;DHT22;8720;48.488;9.202;2023-03-22T01:35:49;13.00;42.80
17208;DHT22;8720;48.488;9.202;2023-03-22T01:38:17;13.00;42.90
17208;DHT22;8720;48.488;9.202;2023-03-22T01:40:57;12.90;43.00
17208;DHT22;8720;48.488;9.202;2023-03-22T01:43:27;12.80;43.10
17208;DHT22;8720;48.488;9.202;2023-03-22T01:45:56;12.80;43.30
17208;DHT22;8720;48.488;9.202;2023-03-22T01:48:32;12.70;43.30
17208;DHT22;8720;48.488;9.202;2023-03-22T01:51:07;12.60;43.30
17208;DHT22;8720;48.488;9.202;2023-03-22T01:54:09;12.60;43.40
17208;DHT22;8720;48.488;9.202;2023-03-22T01:56:41;12.50;43.30
17208;DHT22;8720;48.488;9.202;2023-03-22T01:59:18;12.40;43.30
17208;DHT22;8720;48.488;9.202;2023-03-22T02:02:05;12.40;43.50
17208;DHT22;8720;48.488;9.202;2023-03-22T02:04:36;12.30;43.50
17208;DHT22;8720;48.488;9.202;2023-03-22T02:07:08;12.30;43.80
17208;DHT22;8720;48.488;9.202;2023-03-22T02:09:40;12.20;43.80
17208;DHT22;8720;48.488;9.202;2023-03-22T02:12:18;12.10;43.80
17208;DHT22;8720;48.488;9.202;2023-03-22T02:15:03;12.10;44.30
17208;DHT22;8720;48.488;9.202;2023-03-22T02:18:06;12.00;44.30
17208;DHT22;8720;48.488;9.202;2023-03-22T02:24:38;11.90;44.70
17208;DHT22;8720;48.488;9.202;2023-03-22T02:34:04;11.70;44.60
17208;DHT22;8720;48.488;9.202;2023-03-22T02:37:14;11.60;44.60
17208;DHT22;8720;48.488;9.202;2023-03-22T02:40:13;11.50;44.70
17208;DHT22;8720;48.488;9.202;2023-03-22T02:42:55;11.50;44.50
17208;DHT22;8720;48.488;9.202;2023-03-22T02:45:31;11.40;44.60
17208;DHT22;8720;48.488;9.202;2023-03-22T02:48:06;11.40;44.60
17208;DHT22;8720;48.488;9.202;2023-03-22T02:50:42;11.30;44.60
17208;DHT22;8720;48.488;9.202;2023-03-22T02:53:16;11.30;44.70
17208;DHT22;8720;48.488;9.202;2023-03-22T02:55:51;11.20;44.80
17208;DHT22;8720;48.488;9.202;2023-03-22T02:58:25;11.20;44.90
17208;DHT22;8720;48.488;9.202;2023-03-22T03:03:37;11.10;44.70
17208;DHT22;8720;48.488;9.202;2023-03-22T03:06:09;11.10;44.80
17208;DHT22;8720;48.488;9.202;2023-03-22T03:08:40;11.10;45.00
17208;DHT22;8720;48.488;9.202;2023-03-22T03:11:11;11.10;45.00
17208;DHT22;8720;48.488;9.202;2023-03-22T03:13:38;11.00;45.10
17208;DHT22;8720;48.488;9.202;2023-03-22T03:16:10;10.90;45.60
17208;DHT22;8720;48.488;9.202;2023-03-22T03:18:46;10.90;45.40
17208;DHT22;8720;48.488;9.202;2023-03-22T03:21:32;10.90;45.40
17208;DHT22;8720;48.488;9.202;2023-03-22T03:24:16;10.80;45.60
17208;DHT22;8720;48.488;9.202;2023-03-22T03:26:55;10.70;45.40
17208;DHT22;8720;48.488;9.202;2023-03-22T03:29:32;10.70;45.40
17208;DHT22;8720;48.488;9.202;2023-03-22T03:32:09;10.60;45.30
17208;DHT22;8720;48.488;9.202;2023-03-22T03:34:44;10.60;45.40
17208;DHT22;8720;48.488;9.202;2023-03-22T03:37:19;10.50;45.60
17208;DHT22;8720;48.488;9.202;2023-03-22T03:39:54;10.50;45.60
17208;DHT22;8720;48.488;9.202;2023-03-22T03:42:28;10.40;45.60
17208;DHT22;8720;48.488;9.202;2023-03-22T03:44:57;10.40;45.80
17208;DHT22;8720;48.488;9.202;2023-03-22T03:47:27;10.40;45.90
17208;DHT22;8720;48.488;9.202;2023-03-22T03:49:57;10.30;46.10
17208;DHT22;8720;48.488;9.202;2023-03-22T03:52:24;10.30;46.10
17208;DHT22;8720;48.488;9.202;2023-03-22T03:54:51;10.20;46.00
17208;DHT22;8720;48.488;9.202;2023-03-22T03:57:27;10.20;46.00
17208;DHT22;8720;48.488;9.202;2023-03-22T03:59:54;10.20;46.20
17208;DHT22;8720;48.488;9.202;2023-03-22T04:02:42;10.10;46.20
17208;DHT22;8720;48.488;9.202;2023-03-22T04:05:25;10.00;46.20
17208;DHT22;8720;48.488;9.202;2023-03-22T04:07:52;10.00;46.20
17208;DHT22;8720;48.488;9.202;2023-03-22T04:10:20;10.00;46.40
17208;DHT22;8720;48.488;9.202;2023-03-22T04:12:48;10.00;46.50
17208;DHT22;8720;48.488;9.202;2023-03-22T04:15:17;9.90;47.70
17208;DHT22;8720;48.488;9.202;2023-03-22T04:17:50;9.80;47.50
17208;DHT22;8720;48.488;9.202;2023-03-22T04:20:19;9.80;47.70
17208;DHT22;8720;48.488;9.202;2023-03-22T04:22:46;9.70;48.40
17208;DHT22;8720;48.488;9.202;2023-03-22T04:25:14;9.70;47.90
17208;DHT22;8720;48.488;9.202;2023-03-22T04:27:56;9.70;48.00
17208;DHT22;8720;48.488;9.202;2023-03-22T04:30:25;9.70;48.00
17208;DHT22;8720;48.488;9.202;2023-03-22T04:33:24;9.70;48.10
17208;DHT22;8720;48.488;9.202;2023-03-22T04:36:25;9.60;48.00
17208;DHT22;8720;48.488;9.202;2023-03-22T04:39:11;9.60;48.10
17208;DHT22;8720;48.488;9.202;2023-03-22T04:41:43;9.50;48.10
17208;DHT22;8720;48.488;9.202;2023-03-22T04:44:11;9.50;48.20
17208;DHT22;8720;48.488;9.202;2023-03-22T04:46:46;9.50;48.40
17208;DHT22;8720;48.488;9.202;2023-03-22T04:49:14;9.50;48.40
17208;DHT22;8720;48.488;9.202;2023-03-22T04:51:42;9.40;48.60
17208;DHT22;8720;48.488;9.202;2023-03-22T04:54:33;9.40;48.70
17208;DHT22;8720;48.488;9.202;2023-03-22T04:57:01;9.40;48.80
17208;DHT22;8720;48.488;9.202;2023-03-22T04:59:35;9.30;48.90
17208;DHT22;8720;48.488;9.202;2023-03-22T05:02:03;9.30;49.10
17208;DHT22;8720;48.488;9.202;2023-03-22T05:04:37;9.20;49.10
17208;DHT22;8720;48.488;9.202;2023-03-22T05:07:13;9.20;49.30
17208;DHT22;8720;48.488;9.202;2023-03-22T05:09:47;9.20;49.40
17208;DHT22;8720;48.488;9.202;2023-03-22T05:12:16;9.20;49.40
17208;DHT22;8720;48.488;9.202;2023-03-22T05:14:55;9.20;49.40
17208;DHT22;8720;48.488;9.202;2023-03-22T05:17:27;9.20;49.50
17208;DHT22;8720;48.488;9.202;2023-03-22T05:19:59;9.20;49.50
17208;DHT22;8720;48.488;9.202;2023-03-22T05:22:33;9.20;49.50
17208;DHT22;8720;48.488;9.202;2023-03-22T05:25:04;9.30;49.50
17208;DHT22;8720;48.488;9.202;2023-03-22T05:27:32;9.30;49.70
17208;DHT22;8720;48.488;9.202;2023-03-22T05:30:20;9.30;49.50
17208;DHT22;8720;48.488;9.202;2023-03-22T05:32:59;9.30;49.60
17208;DHT22;8720;48.488;9.202;2023-03-22T05:35:29;9.40;49.70
17208;DHT22;8720;48.488;9.202;2023-03-22T05:37:59;9.40;49.50
17208;DHT22;8720;48.488;9.202;2023-03-22T05:40:29;9.40;49.50
17208;DHT22;8720;48.488;9.202;2023-03-22T05:42:56;9.40;49.50
17208;DHT22;8720;48.488;9.202;2023-03-22T05:45:44;9.40;50.00
17208;DHT22;8720;48.488;9.202;2023-03-22T05:48:33;9.50;49.90
17208;DHT22;8720;48.488;9.202;2023-03-22T05:51:01;9.50;49.50
17208;DHT22;8720;48.488;9.202;2023-03-22T05:53:32;9.60;49.50
17208;DHT22;8720;48.488;9.202;2023-03-22T05:56:13;9.60;49.40
17208;DHT22;8720;48.488;9.202;2023-03-22T05:58:43;9.70;49.40
17208;DHT22;8720;48.488;9.202;2023-03-22T06:01:16;9.70;49.30
17208;DHT22;8720;48.488;9.202;2023-03-22T06:03:45;9.80;49.30
17208;DHT22;8720;48.488;9.202;2023-03-22T06:06:24;9.80;49.10
17208;DHT22;8720;48.488;9.202;2023-03-22T06:09:04;9.80;49.00
17208;DHT22;8720;48.488;9.202;2023-03-22T06:11:31;9.90;49.00
17208;DHT22;8720;48.488;9.202;2023-03-22T06:14:02;9.90;49.00
17208;DHT22;8720;48.488;9.202;2023-03-22T06:16:45;9.90;48.90
17208;DHT22;8720;48.488;9.202;2023-03-22T06:19:13;10.00;48.20
17208;DHT22;8720;48.488;9.202;2023-03-22T06:21:41;10.00;48.20
17208;DHT22;8720;48.488;9.202;2023-03-22T06:24:11;10.00;48.30
17208;DHT22;8720;48.488;9.202;2023-03-22T06:26:39;10.00;48.50
17208;DHT22;8720;48.488;9.202;2023-03-22T06:29:06;10.10;48.50
17208;DHT22;8720;48.488;9.202;2023-03-22T06:31:34;10.10;48.40
17208;DHT22;8720;48.488;9.202;2023-03-22T06:34:05;10.10;48.40
17208;DHT22;8720;48.488;9.202;2023-03-22T06:36:39;10.10;48.40
17208;DHT22;8720;48.488;9.202;2023-03-22T06:39:13;10.10;48.30
17208;DHT22;8720;48.488;9.202;2023-03-22T06:41:43;10.20;48.50
17208;DHT22;8720;48.488;9.202;2023-03-22T06:44:10;10.20;48.60
17208;DHT22;8720;48.488;9.202;2023-03-22T06:46:50;10.20;49.00
17208;DHT22;8720;48.488;9.202;2023-03-22T06:49:39;10.40;49.60
17208;DHT22;8720;48.488;9.202;2023-03-22T06:52:07;10.70;49.90
17208;DHT22;8720;48.488;9.202;2023-03-22T06:54:36;11.00;50.00
17208;DHT22;8720;48.488;9.202;2023-03-22T06:57:03;11.40;50.10
17208;DHT22;8720;48.488;9.202;2023-03-22T06:59:30;11.70;49.80
17208;DHT22;8720;48.488;9.202;2023-03-22T07:01:58;12.10;49.60
17208;DHT22;8720;48.488;9.202;2023-03-22T07:04:26;12.40;49.40
17208;DHT22;8720;48.488;9.202;2023-03-22T07:06:55;12.80;49.30
17208;DHT22;8720;48.488;9.202;2023-03-22T07:09:25;13.20;49.00
17208;DHT22;8720;48.488;9.202;2023-03-22T07:11:56;13.60;48.90
17208;DHT22;8720;48.488;9.202;2023-03-22T07:14:24;14.00;48.70
17208;DHT22;8720;48.488;9.202;2023-03-22T07:16:59;14.40;48.40
17208;DHT22;8720;48.488;9.202;2023-03-22T07:19:29;14.80;48.10
17208;DHT22;8720;48.488;9.202;2023-03-22T07:22:01;15.20;47.60
17208;DHT22;8720;48.488;9.202;2023-03-22T07:24:32;15.50;46.80
17208;DHT22;8720;48.488;9.202;2023-03-22T07:27:01;15.80;46.40
17208;DHT22;8720;48.488;9.202;2023-03-22T07:29:28;16.10;46.10
17208;DHT22;8720;48.488;9.202;2023-03-22T07:31:57;16.30;45.70
17208;DHT22;8720;48.488;9.202;2023-03-22T07:34:30;16.60;45.10
17208;DHT22;8720;48.488;9.202;2023-03-22T07:37:05;16.80;45.60
17208;DHT22;8720;48.488;9.202;2023-03-22T07:39:34;16.90;44.50
17208;DHT22;8720;48.488;9.202;2023-03-22T07:42:02;17.10;44.40
17208;DHT22;8720;48.488;9.202;2023-03-22T07:44:38;17.20;44.30
17208;DHT22;8720;48.488;9.202;2023-03-22T07:47:19;17.30;43.80
17208;DHT22;8720;48.488;9.202;2023-03-22T07:49:55;17.30;43.40
17208;DHT22;8720;48.488;9.202;2023-03-22T07:52:30;17.30;42.80
17208;DHT22;8720;48.488;9.202;2023-03-22T07:54:58;17.30;42.80
17208;DHT22;8720;48.488;9.202;2023-03-22T07:57:25;17.30;43.10
17208;DHT22;8720;48.488;9.202;2023-03-22T07:59:57;17.30;42.90
17208;DHT22;8720;48.488;9.202;2023-03-22T08:02:41;17.30;42.90
17208;DHT22;8720;48.488;9.202;2023-03-22T08:05:14;17.40;42.90
17208;DHT22;8720;48.488;9.202;2023-03-22T08:07:44;17.40;42.80
17208;DHT22;8720;48.488;9.202;2023-03-22T08:10:13;17.50;42.70
17208;DHT22;8720;48.488;9.202;2023-03-22T08:12:41;17.60;42.80
17208;DHT22;8720;48.488;9.202;2023-03-22T08:15:17;17.70;42.60
17208;DHT22;8720;48.488;9.202;2023-03-22T08:17:44;17.70;42.40
17208;DHT22;8720;48.488;9.202;2023-03-22T08:20:21;17.80;42.20
17208;DHT22;8720;48.488;9.202;2023-03-22T08:22:54;17.80;42.00
17208;DHT22;8720;48.488;9.202;2023-03-22T08:25:53;17.80;41.70
17208;DHT22;8720;48.488;9.202;2023-03-22T08:28:20;17.80;41.80
17208;DHT22;8720;48.488;9.202;2023-03-22T08:30:49;17.80;41.70
17208;DHT22;8720;48.488;9.202;2023-03-22T08:33:16;17.90;41.70
17208;DHT22;8720;48.488;9.202;2023-03-22T08:35:46;17.90;41.50
17208;DHT22;8720;48.488;9.202;2023-03-22T08:38:14;17.90;41.50
17208;DHT22;8720;48.488;9.202;2023-03-22T08:40:46;18.00;41.30
17208;DHT22;8720;48.488;9.202;2023-03-22T08:43:18;18.00;41.60
17208;DHT22;8720;48.488;9.202;2023-03-22T08:45:46;18.00;41.30
17208;DHT22;8720;48.488;9.202;2023-03-22T08:48:15;18.10;41.00
17208;DHT22;8720;48.488;9.202;2023-03-22T08:51:00;18.10;40.90
17208;DHT22;8720;48.488;9.202;2023-03-22T08:53:39;18.10;40.80
17208;DHT22;8720;48.488;9.202;2023-03-22T08:56:25;18.10;40.60
17208;DHT22;8720;48.488;9.202;2023-03-22T08:59:10;18.10;40.80
17208;DHT22;8720;48.488;9.202;2023-03-22T09:01:46;18.10;40.70
17208;DHT22;8720;48.488;9.202;2023-03-22T09:04:14;18.20;41.70
17208;DHT22;8720;48.488;9.202;2023-03-22T09:06:41;18.20;40.80
17208;DHT22;8720;48.488;9.202;2023-03-22T09:09:12;18.30;40.80
17208;DHT22;8720;48.488;9.202;2023-03-22T09:11:41;18.30;40.60
17208;DHT22;8720;48.488;9.202;2023-03-22T09:16:44;18.50;40.50
17208;DHT22;8720;48.488;9.202;2023-03-22T09:19:12;18.50;40.60
17208;DHT22;8720;48.488;9.202;2023-03-22T09:21:40;18.60;40.50
17208;DHT22;8720;48.488;9.202;2023-03-22T09:24:15;18.70;40.50
17208;DHT22;8720;48.488;9.202;2023-03-22T09:26:48;18.80;40.40
17208;DHT22;8720;48.488;9.202;2023-03-22T09:29:17;18.80;40.40
17208;DHT22;8720;48.488;9.202;2023-03-22T09:31:46;18.90;40.00
17208;DHT22;8720;48.488;9.202;2023-03-22T09:34:21;19.00;39.60
17208;DHT22;8720;48.488;9.202;2023-03-22T09:36:48;19.10;39.70
17208;DHT22;8720;48.488;9.202;2023-03-22T09:39:21;19.10;39.50
17208;DHT22;8720;48.488;9.202;2023-03-22T09:41:54;19.20;39.10
17208;DHT22;8720;48.488;9.202;2023-03-22T09:44:30;19.20;38.70
17208;DHT22;8720;48.488;9.202;2023-03-22T09:47:03;19.20;38.70
17208;DHT22;8720;48.488;9.202;2023-03-22T09:49:35;19.30;38.60
17208;DHT22;8720;48.488;9.202;2023-03-22T09:52:10;19.30;38.50
17208;DHT22;8720;48.488;9.202;2023-03-22T09:54:42;19.30;38.20
17208;DHT22;8720;48.488;9.202;2023-03-22T09:57:17;19.40;38.00
17208;DHT22;8720;48.488;9.202;2023-03-22T09:59:57;19.40;37.90
17208;DHT22;8720;48.488;9.202;2023-03-22T10:02:57;19.40;37.80
17208;DHT22;8720;48.488;9.202;2023-03-22T10:05:36;19.50;37.50
17208;DHT22;8720;48.488;9.202;2023-03-22T10:08:26;19.50;37.70
17208;DHT22;8720;48.488;9.202;2023-03-22T10:11:10;19.50;37.30
17208;DHT22;8720;48.488;9.202;2023-03-22T10:13:52;19.60;37.00
17208;DHT22;8720;48.488;9.202;2023-03-22T10:16:29;19.70;36.90
17208;DHT22;8720;48.488;9.202;2023-03-22T10:19:04;19.70;37.00
17208;DHT22;8720;48.488;9.202;2023-03-22T10:21:38;19.80;36.80
17208;DHT22;8720;48.488;9.202;2023-03-22T10:24:11;19.80;37.10
17208;DHT22;8720;48.488;9.202;2023-03-22T10:26:45;19.90;36.90
17208;DHT22;8720;48.488;9.202;2023-03-22T10:29:20;19.90;36.70
17208;DHT22;8720;48.488;9.202;2023-03-22T10:31:50;20.00;36.10
17208;DHT22;8720;48.488;9.202;2023-03-22T10:34:20;20.00;36.40
17208;DHT22;8720;48.488;9.202;2023-03-22T10:36:50;20.00;35.90
17208;DHT22;8720;48.488;9.202;2023-03-22T10:39:26;20.10;36.10
17208;DHT22;8720;48.488;9.202;2023-03-22T10:42:00;20.10;35.90
17208;DHT22;8720;48.488;9.202;2023-03-22T10:44:32;20.20;36.10
17208;DHT22;8720;48.488;9.202;2023-03-22T10:47:08;20.30;35.80
17208;DHT22;8720;48.488;9.202;2023-03-22T10:49:41;20.30;35.70
17208;DHT22;8720;48.488;9.202;2023-03-22T10:52:21;20.30;35.30
17208;DHT22;8720;48.488;9.202;2023-03-22T10:55:02;20.40;35.10
17208;DHT22;8720;48.488;9.202;2023-03-22T10:57:31;20.40;35.70
17208;DHT22;8720;48.488;9.202;2023-03-22T10:59:58;20.50;35.40
17208;DHT22;8720;48.488;9.202;2023-03-22T11:02:27;20.50;35.30
17208;DHT22;8720;48.488;9.202;2023-03-22T11:04:58;20.60;35.10
17208;DHT22;8720;48.488;9.202;2023-03-22T11:07:31;20.60;34.60
17208;DHT22;8720;48.488;9.202;2023-03-22T11:10:22;20.70;34.70
17208;DHT22;8720;48.488;9.202;2023-03-22T11:12:55;20.80;34.00
17208;DHT22;8720;48.488;9.202;2023-03-22T11:15:40;20.90;34.50
17208;DHT22;8720;48.488;9.202;2023-03-22T11:18:16;20.90;34.60
17208;DHT22;8720;48.488;9.202;2023-03-22T11:20:54;21.00;34.40
17208;DHT22;8720;48.488;9.202;2023-03-22T11:23:25;21.00;33.60
17208;DHT22;8720;48.488;9.202;2023-03-22T11:25:55;21.10;34.30
17208;DHT22;8720;48.488;9.202;2023-03-22T11:28:33;21.10;34.30
17208;DHT22;8720;48.488;9.202;2023-03-22T11:31:05;21.10;34.10
17208;DHT22;8720;48.488;9.202;2023-03-22T11:33:35;21.20;34.20
17208;DHT22;8720;48.488;9.202;2023-03-22T11:36:13;21.20;34.30
17208;DHT22;8720;48.488;9.202;2023-03-22T11:38:43;21.20;34.20
17208;DHT22;8720;48.488;9.202;2023-03-22T11:41:20;21.30;33.90
17208;DHT22;8720;48.488;9.202;2023-03-22T11:43:52;21.30;34.40
17208;DHT22;8720;48.488;9.202;2023-03-22T11:46:22;21.40;33.60
17208;DHT22;8720;48.488;9.202;2023-03-22T11:48:52;21.50;34.50
17208;DHT22;8720;48.488;9.202;2023-03-22T11:51:27;21.60;33.40
17208;DHT22;8720;48.488;9.202;2023-03-22T11:54:03;21.70;33.40
17208;DHT22;8720;48.488;9.202;2023-03-22T11:56:34;21.70;33.40
17208;DHT22;8720;48.488;9.202;2023-03-22T11:59:13;21.80;33.50
17208;DHT22;8720;48.488;9.202;2023-03-22T12:01:46;21.90;33.30
17208;DHT22;8720;48.488;9.202;2023-03-22T12:04:20;22.00;33.40
17208;DHT22;8720;48.488;9.202;2023-03-22T12:06:54;22.00;33.40
17208;DHT22;8720;48.488;9.202;2023-03-22T12:09:31;22.10;33.20
17208;DHT22;8720;48.488;9.202;2023-03-22T12:12:07;22.10;32.80
17208;DHT22;8720;48.488;9.202;2023-03-22T12:14:44;22.20;33.00
17208;DHT22;8720;48.488;9.202;2023-03-22T12:17:23;22.20;32.60
17208;DHT22;8720;48.488;9.202;2023-03-22T12:20:01;22.20;32.60
17208;DHT22;8720;48.488;9.202;2023-03-22T12:22:34;22.10;32.30
17208;DHT22;8720;48.488;9.202;2023-03-22T12:25:11;22.10;32.50
17208;DHT22;8720;48.488;9.202;2023-03-22T12:27:44;22.10;32.30
17208;DHT22;8720;48.488;9.202;2023-03-22T12:30:20;22.10;32.50
17208;DHT22;8720;48.488;9.202;2023-03-22T12:32:52;22.10;32.20
17208;DHT22;8720;48.488;9.202;2023-03-22T12:35:29;22.10;32.10
17208;DHT22;8720;48.488;9.202;2023-03-22T12:38:05;22.10;31.90
17208;DHT22;8720;48.488;9.202;2023-03-22T12:40:43;22.00;31.70
17208;DHT22;8720;48.488;9.202;2023-03-22T12:43:14;22.00;31.70
17208;DHT22;8720;48.488;9.202;2023-03-22T12:45:47;22.00;31.30
17208;DHT22;8720;48.488;9.202;2023-03-22T12:48:22;22.00;31.30
17208;DHT22;8720;48.488;9.202;2023-03-22T12:51:01;22.10;31.20
17208;DHT22;8720;48.488;9.202;2023-03-22T12:53:35;22.10;31.00
17208;DHT22;8720;48.488;9.202;2023-03-22T12:56:09;22.10;30.70
17208;DHT22;8720;48.488;9.202;2023-03-22T12:58:39;22.20;30.80
17208;DHT22;8720;48.488;9.202;2023-03-22T13:01:20;22.20;30.80
17208;DHT22;8720;48.488;9.202;2023-03-22T13:03:54;22.20;30.10
17208;DHT22;8720;48.488;9.202;2023-03-22T13:06:31;22.30;31.30
17208;DHT22;8720;48.488;9.202;2023-03-22T13:09:34;22.30;29.90
17208;DHT22;8720;48.488;9.202;2023-03-22T13:12:31;22.40;30.00
17208;DHT22;8720;48.488;9.202;2023-03-22T13:15:28;22.40;30.00
17208;DHT22;8720;48.488;9.202;2023-03-22T13:18:01;22.50;30.00
17208;DHT22;8720;48.488;9.202;2023-03-22T13:20:31;22.60;30.20
17208;DHT22;8720;48.488;9.202;2023-03-22T13:26:18;22.80;29.80
17208;DHT22;8720;48.488;9.202;2023-03-22T13:28:56;22.90;30.20
17208;DHT22;8720;48.488;9.202;2023-03-22T13:31:36;22.90;29.60
17208;DHT22;8720;48.488;9.202;2023-03-22T13:34:18;23.00;29.20
17208;DHT22;8720;48.488;9.202;2023-03-22T13:36:52;23.00;29.20
17208;DHT22;8720;48.488;9.202;2023-03-22T13:39:22;23.00;29.20
17208;DHT22;8720;48.488;9.202;2023-03-22T13:42:06;23.00;29.40
17208;DHT22;8720;48.488;9.202;2023-03-22T13:44:42;23.00;29.10
17208;DHT22;8720;48.488;9.202;2023-03-22T13:47:30;23.00;29.40
17208;DHT22;8720;48.488;9.202;2023-03-22T13:50:10;23.00;28.80
17208;DHT22;8720;48.488;9.202;2023-03-22T13:52:45;23.00;28.90
17208;DHT22;8720;48.488;9.202;2023-03-22T13:56:04;23.00;29.10
17208;DHT22;8720;48.488;9.202;2023-03-22T13:58:35;23.00;28.80
17208;DHT22;8720;48.488;9.202;2023-03-22T14:01:16;23.00;29.00
17208;DHT22;8720;48.488;9.202;2023-03-22T14:03:52;23.00;28.90
17208;DHT22;8720;48.488;9.202;2023-03-22T14:06:31;23.00;28.90
17208;DHT22;8720;48.488;9.202;2023-03-22T14:09:03;23.00;28.70
17208;DHT22;8720;48.488;9.202;2023-03-22T14:11:43;23.00;28.90
17208;DHT22;8720;48.488;9.202;2023-03-22T14:14:18;23.00;28.80
17208;DHT22;8720;48.488;9.202;2023-03-22T14:16:50;23.00;28.80
17208;DHT22;8720;48.488;9.202;2023-03-22T14:19:25;23.00;28.80
17208;DHT22;8720;48.488;9.202;2023-03-22T14:22:02;23.00;28.80
17208;DHT22;8720;48.488;9.202;2023-03-22T14:24:33;23.10;28.60
17208;DHT22;8720;48.488;9.202;2023-03-22T14:27:02;23.10;28.70
17208;DHT22;8720;48.488;9.202;2023-03-22T14:29:41;23.10;28.80
17208;DHT22;8720;48.488;9.202;2023-03-22T14:32:15;23.10;28.30
17208;DHT22;8720;48.488;9.202;2023-03-22T14:34:47;23.10;28.40
17208;DHT22;8720;48.488;9.202;2023-03-22T14:37:19;23.00;28.40
17208;DHT22;8720;48.488;9.202;2023-03-22T14:39:51;23.00;28.80
17208;DHT22;8720;48.488;9.202;2023-03-22T14:42:25;23.00;28.40
17208;DHT22;8720;48.488;9.202;2023-03-22T14:44:56;23.00;28.20
17208;DHT22;8720;48.488;9.202;2023-03-22T14:47:27;23.00;28.40
17208;DHT22;8720;48.488;9.202;2023-03-22T14:50:02;22.90;28.30
17208;DHT22;8720;48.488;9.202;2023-03-22T14:52:34;22.90;28.40
17208;DHT22;8720;48.488;9.202;2023-03-22T14:55:06;22.90;28.30
17208;DHT22;8720;48.488;9.202;2023-03-22T14:57:38;22.80;28.30
17208;DHT22;8720;48.488;9.202;2023-03-22T15:00:12;22.80;28.40
17208;DHT22;8720;48.488;9.202;2023-03-22T15:02:47;22.80;28.30
17208;DHT22;8720;48.488;9.202;2023-03-22T15:05:17;22.80;28.10
17208;DHT22;8720;48.488;9.202;2023-03-22T15:07:50;22.80;28.00
17208;DHT22;8720;48.488;9.202;2023-03-22T15:10:21;22.80;27.90
17208;DHT22;8720;48.488;9.202;2023-03-22T15:12:51;22.80;28.00
17208;DHT22;8720;48.488;9.202;2023-03-22T15:15:23;22.70;28.00
17208;DHT22;8720;48.488;9.202;2023-03-22T15:17:54;22.70;27.90
17208;DHT22;8720;48.488;9.202;2023-03-22T15:20:26;22.60;28.00
17208;DHT22;8720;48.488;9.202;2023-03-22T15:22:58;22.60;27.90
17208;DHT22;8720;48.488;9.202;2023-03-22T15:25:35;22.50;27.80
17208;DHT22;8720;48.488;9.202;2023-03-22T15:28:07;22.40;27.90
17208;DHT22;8720;48.488;9.202;2023-03-22T15:30:43;22.40;27.70
17208;DHT22;8720;48.488;9.202;2023-03-22T15:33:19;22.30;27.70
17208;DHT22;8720;48.488;9.202;2023-03-22T15:35:48;22.30;28.20
17208;DHT22;8720;48.488;9.202;2023-03-22T15:38:25;22.20;28.40
17208;DHT22;8720;48.488;9.202;2023-03-22T15:40:56;22.10;27.70
17208;DHT22;8720;48.488;9.202;2023-03-22T15:43:32;22.10;28.00
17208;DHT22;8720;48.488;9.202;2023-03-22T15:46:15;22.00;27.80
17208;DHT22;8720;48.488;9.202;2023-03-22T15:48:46;22.00;27.80
17208;DHT22;8720;48.488;9.202;2023-03-22T15:51:20;21.90;27.90
17208;DHT22;8720;48.488;9.202;2023-03-22T15:53:50;21.90;27.90
17208;DHT22;8720;48.488;9.202;2023-03-22T15:56:28;21.80;28.00
17208;DHT22;8720;48.488;9.202;2023-03-22T15:58:59;21.70;27.90
17208;DHT22;8720;48.488;9.202;2023-03-22T16:01:31;21.70;28.60
17208;DHT22;8720;48.488;9.202;2023-03-22T16:04:14;21.60;28.20
17208;DHT22;8720;48.488;9.202;2023-03-22T16:06:45;21.60;28.30
17208;DHT22;8720;48.488;9.202;2023-03-22T16:09:14;21.50;28.40
17208;DHT22;8720;48.488;9.202;2023-03-22T16:11:42;21.50;28.40
17208;DHT22;8720;48.488;9.202;2023-03-22T16:14:12;21.40;28.30
17208;DHT22;8720;48.488;9.202;2023-03-22T16:16:41;21.30;28.40
17208;DHT22;8720;48.488;9.202;2023-03-22T16:19:10;21.20;28.50
17208;DHT22;8720;48.488;9.202;2023-03-22T16:21:39;21.20;28.60
17208;DHT22;8720;48.488;9.202;2023-03-22T16:24:07;21.10;28.70
17208;DHT22;8720;48.488;9.202;2023-03-22T16:26:36;21.00;28.70
17208;DHT22;8720;48.488;9.202;2023-03-22T16:29:04;21.00;28.80
17208;DHT22;8720;48.488;9.202;2023-03-22T16:31:31;20.90;28.80
17208;DHT22;8720;48.488;9.202;2023-03-22T16:33:58;20.90;28.90
17208;DHT22;8720;48.488;9.202;2023-03-22T16:36:26;20.80;29.00
17208;DHT22;8720;48.488;9.202;2023-03-22T16:38:53;20.70;29.00
17208;DHT22;8720;48.488;9.202;2023-03-22T16:41:23;20.70;29.10
17208;DHT22;8720;48.488;9.202;2023-03-22T16:43:54;20.60;29.10
17208;DHT22;8720;48.488;9.202;2023-03-22T16:46:24;20.50;29.20
17208;DHT22;8720;48.488;9.202;2023-03-22T16:48:52;20.40;29.20